createdAt,value
2018-11-02T00:00:51.845Z,100363.63
2018-11-02T00:01:55.241Z,100366.61
2018-11-02T00:02:58.632Z,100369.13
2018-11-02T00:04:02.039Z,100369.66
2018-11-02T00:05:06.086Z,100370.80
2018-11-02T00:06:09.553Z,100381.56
2018-11-02T00:07:12.932Z,100375.02
2018-11-02T00:08:16.439Z,100378.91
2018-11-02T00:09:19.923Z,100386.36
2018-11-02T00:10:23.328Z,100384.41
2018-11-02T00:11:26.750Z,100379.23
2018-11-02T00:12:30.199Z,100381.98
2018-11-02T00:13:33.556Z,100381.98
2018-11-02T00:14:36.993Z,100388.87
2018-11-02T00:15:40.494Z,100391.38
2018-11-02T00:16:43.870Z,100384.50
2018-11-02T00:17:47.279Z,100394.94
2018-11-02T00:18:50.714Z,100390.81
2018-11-02T00:19:54.145Z,100391.95
2018-11-02T00:20:57.608Z,100390.00
2018-11-02T00:22:02.852Z,100387.02
2018-11-02T00:23:06.331Z,100382.32
2018-11-02T00:24:09.759Z,100378.20
2018-11-02T00:25:13.322Z,100370.28
2018-11-02T00:26:16.786Z,100365.58
2018-11-02T00:27:20.213Z,100355.72
2018-11-02T00:28:23.642Z,100348.60
2018-11-02T00:29:27.084Z,100344.48
2018-11-02T00:30:30.501Z,100345.37
2018-11-02T00:31:33.931Z,100353.62
2018-11-02T00:32:37.412Z,100356.38
2018-11-02T00:33:40.805Z,100358.33
2018-11-02T00:34:44.197Z,100360.84
2018-11-02T00:35:47.627Z,100366.06
2018-11-02T00:36:51.079Z,100368.25
2018-11-02T00:37:54.528Z,100373.52
2018-11-02T00:38:57.918Z,100376.02
2018-11-02T00:40:01.343Z,100380.38
2018-11-02T00:41:04.857Z,100382.89
2018-11-02T00:42:08.283Z,100379.58
2018-11-02T00:43:11.664Z,100387.02
2018-11-02T00:44:15.211Z,100389.53
2018-11-02T00:45:18.641Z,100385.17
2018-11-02T00:46:22.042Z,100396.41
2018-11-02T00:47:25.503Z,100391.80
2018-11-02T00:48:28.940Z,100391.80
2018-11-02T00:49:32.362Z,100397.63
2018-11-02T00:50:35.794Z,100408.06
2018-11-02T00:51:39.217Z,100407.83
2018-11-02T00:52:42.608Z,100407.59
2018-11-02T00:53:45.998Z,100411.71
2018-11-02T00:54:49.401Z,100407.92
2018-11-02T00:55:52.821Z,100405.50
2018-11-02T00:56:56.313Z,100408.25
2018-11-02T00:57:59.705Z,100410.76
2018-11-02T00:59:03.168Z,100406.96
2018-11-02T01:00:09.182Z,100397.91
2018-11-02T01:01:12.578Z,100401.76
2018-11-02T01:02:16.001Z,100406.45
2018-11-02T01:03:19.516Z,100401.52
2018-11-02T01:04:22.933Z,100406.78
2018-11-02T01:05:26.422Z,100398.86
2018-11-02T01:06:30.164Z,100399.67
2018-11-02T01:07:33.669Z,100401.61
2018-11-02T01:08:37.061Z,100406.30
2018-11-02T01:09:40.503Z,100409.05
2018-11-02T01:10:43.916Z,100411.80
2018-11-02T01:11:47.325Z,100418.67
2018-11-02T01:12:50.741Z,100420.29
2018-11-02T01:13:54.165Z,100421.98
2018-11-02T01:14:57.554Z,100423.94
2018-11-02T01:16:00.974Z,100431.05
2018-11-02T01:17:04.482Z,100432.98
2018-11-02T01:18:08.528Z,100428.62
2018-11-02T01:19:11.911Z,100433.88
2018-11-02T01:20:15.312Z,100439.95
2018-11-02T01:21:18.759Z,100444.07
2018-11-02T01:22:22.243Z,100442.22
2018-11-02T01:23:25.643Z,100443.34
2018-11-02T01:24:29.267Z,100443.11
2018-11-02T01:25:33.505Z,100443.67
2018-11-02T01:26:36.932Z,100447.56
2018-11-02T01:27:40.335Z,100450.87
2018-11-02T01:28:43.776Z,100454.19
2018-11-02T01:29:47.201Z,100455.30
2018-11-02T01:30:50.603Z,100456.19
2018-11-02T01:31:54.040Z,100452.62
2018-11-02T01:32:57.467Z,100454.57
2018-11-02T01:34:00.908Z,100457.65
2018-11-02T01:35:04.429Z,100452.48
2018-11-02T01:36:09.608Z,100451.67
2018-11-02T01:37:13.014Z,100460.48
2018-11-02T01:38:16.424Z,100456.69
2018-11-02T01:39:19.907Z,100458.06
2018-11-02T01:40:23.370Z,100465.25
2018-11-02T01:41:26.859Z,100464.69
2018-11-02T01:42:30.273Z,100465.02
2018-11-02T01:43:33.864Z,100463.64
2018-11-02T01:44:37.400Z,100466.71
2018-11-02T01:45:40.892Z,100468.09
2018-11-02T01:46:44.496Z,100473.58
2018-11-02T01:47:47.918Z,100475.81
2018-11-02T01:48:51.343Z,100478.03
2018-11-02T01:49:54.776Z,100484.91
2018-11-02T01:50:58.415Z,100481.31
2018-11-02T01:52:01.865Z,100479.94
2018-11-02T01:53:05.517Z,100484.63
2018-11-02T01:54:08.922Z,100492.88
2018-11-02T01:55:12.367Z,100489.08
2018-11-02T01:56:15.773Z,100497.88
2018-11-02T01:57:19.193Z,100492.95
2018-11-02T01:58:22.724Z,100495.14
2018-11-02T01:59:26.155Z,100495.70
2018-11-02T02:00:29.578Z,100496.84
2018-11-02T02:01:32.989Z,100501.20
2018-11-02T02:02:36.412Z,100499.58
2018-11-02T02:03:39.797Z,100505.41
2018-11-02T02:04:43.205Z,100499.09
2018-11-02T02:05:46.633Z,100502.66
2018-11-02T02:06:50.052Z,100506.53
2018-11-02T02:07:53.467Z,100507.09
2018-11-02T02:08:56.898Z,100513.16
2018-11-02T02:10:00.306Z,100516.72
2018-11-02T02:11:03.812Z,100512.35
2018-11-02T02:12:07.263Z,100517.61
2018-11-02T02:13:10.662Z,100516.23
2018-11-02T02:14:14.055Z,100515.42
2018-11-02T02:15:17.465Z,100515.19
2018-11-02T02:16:20.890Z,100515.75
2018-11-02T02:17:24.280Z,100526.73
2018-11-02T02:18:27.856Z,100521.80
2018-11-02T02:19:31.324Z,100529.81
2018-11-02T02:20:34.756Z,100530.61
2018-11-02T02:21:38.192Z,100529.00
2018-11-02T02:22:41.617Z,100537.24
2018-11-02T02:23:44.998Z,100532.31
2018-11-02T02:24:48.417Z,100529.30
2018-11-02T02:25:51.794Z,100534.25
2018-11-02T02:26:55.221Z,100535.63
2018-11-02T02:27:58.656Z,100534.79
2018-11-02T02:29:02.063Z,100536.73
2018-11-02T02:30:07.705Z,100537.30
2018-11-02T02:31:11.108Z,100544.16
2018-11-02T02:32:14.559Z,100543.35
2018-11-02T02:33:17.960Z,100541.98
2018-11-02T02:34:21.388Z,100538.98
2018-11-02T02:35:24.790Z,100543.11
2018-11-02T02:36:28.215Z,100547.23
2018-11-02T02:37:32.562Z,100538.74
2018-11-02T02:38:36.008Z,100536.00
2018-11-02T02:39:39.418Z,100542.63
2018-11-02T02:40:42.853Z,100540.68
2018-11-02T02:41:46.234Z,100548.36
2018-11-02T02:42:49.624Z,100549.49
2018-11-02T02:43:53.117Z,100547.88
2018-11-02T02:44:56.501Z,100550.62
2018-11-02T02:45:59.888Z,100549.56
2018-11-02T02:47:03.336Z,100555.87
2018-11-02T02:48:07.066Z,100558.94
2018-11-02T02:49:10.452Z,100559.50
2018-11-02T02:50:14.647Z,100568.55
2018-11-02T02:51:18.050Z,100569.92
2018-11-02T02:52:21.477Z,100567.75
2018-11-02T02:53:24.899Z,100571.63
2018-11-02T02:54:28.316Z,100569.20
2018-11-02T02:55:31.683Z,100578.25
2018-11-02T02:56:35.110Z,100578.81
2018-11-02T02:57:38.827Z,100585.11
2018-11-02T02:58:42.220Z,100589.80
2018-11-02T02:59:45.628Z,100591.70
2018-11-02T03:00:49.029Z,100594.73
2018-11-02T03:01:52.417Z,100596.67
2018-11-02T03:02:55.809Z,100598.84
2018-11-02T03:03:59.248Z,100598.84
2018-11-02T03:05:02.667Z,100607.09
2018-11-02T03:06:06.124Z,100613.95
2018-11-02T03:07:09.561Z,100612.59
2018-11-02T03:08:12.964Z,100607.66
2018-11-02T03:09:16.378Z,100605.44
2018-11-02T03:10:19.872Z,100608.19
2018-11-02T03:11:23.244Z,100608.19
2018-11-02T03:12:26.692Z,100614.25
2018-11-02T03:13:30.066Z,100613.44
2018-11-02T03:14:33.543Z,100616.43
2018-11-02T03:15:36.945Z,100615.63
2018-11-02T03:16:40.388Z,100617.56
2018-11-02T03:17:43.800Z,100616.75
2018-11-02T03:18:47.723Z,100616.75
2018-11-02T03:19:51.089Z,100616.75
2018-11-02T03:20:54.516Z,100615.94
2018-11-02T03:21:58.007Z,100616.50
2018-11-02T03:23:01.426Z,100613.76
2018-11-02T03:24:04.810Z,100621.16
2018-11-02T03:25:09.447Z,100616.80
2018-11-02T03:26:12.853Z,100620.91
2018-11-02T03:27:16.279Z,100626.41
2018-11-02T03:28:19.715Z,100633.52
2018-11-02T03:29:23.102Z,100629.16
2018-11-02T03:30:26.490Z,100635.77
2018-11-02T03:31:29.934Z,100640.14
2018-11-02T03:32:33.375Z,100634.16
2018-11-02T03:33:36.775Z,100638.28
2018-11-02T03:34:40.360Z,100638.28
2018-11-02T03:35:43.823Z,100639.65
2018-11-02T03:36:47.221Z,100639.65
2018-11-02T03:37:50.604Z,100641.91
2018-11-02T03:38:54.004Z,100641.66
2018-11-02T03:39:57.397Z,100641.41
2018-11-02T03:41:00.937Z,100647.96
2018-11-02T03:42:04.392Z,100645.53
2018-11-02T03:43:07.876Z,100651.03
2018-11-02T03:44:11.416Z,100646.66
2018-11-02T03:45:14.988Z,100654.91
2018-11-02T03:46:18.410Z,100656.27
2018-11-02T03:47:21.820Z,100663.14
2018-11-02T03:48:25.246Z,100660.95
2018-11-02T03:49:28.636Z,100667.02
2018-11-02T03:50:32.527Z,100673.88
2018-11-02T03:51:36.027Z,100670.57
2018-11-02T03:52:39.647Z,100673.32
2018-11-02T03:53:43.104Z,100668.14
2018-11-02T03:54:46.539Z,100674.20
2018-11-02T03:55:50.184Z,100672.51
2018-11-02T03:56:53.639Z,100677.75
2018-11-02T03:57:57.045Z,100676.38
2018-11-02T03:59:00.454Z,100670.89
2018-11-02T04:00:05.056Z,100675.58
2018-11-02T04:01:08.542Z,100674.20
2018-11-02T04:02:11.942Z,100681.06
2018-11-02T04:03:15.371Z,100688.73
2018-11-02T04:04:18.820Z,100681.31
2018-11-02T04:05:22.250Z,100686.56
2018-11-02T04:06:25.671Z,100683.81
2018-11-02T04:07:29.105Z,100691.48
2018-11-02T04:08:32.559Z,100690.92
2018-11-02T04:09:36.132Z,100697.23
2018-11-02T04:10:39.506Z,100696.98
2018-11-02T04:11:42.886Z,100704.09
2018-11-02T04:12:46.368Z,100705.47
2018-11-02T04:13:49.754Z,100705.22
2018-11-02T04:14:53.173Z,100710.16
2018-11-02T04:15:56.625Z,100710.96
2018-11-02T04:17:00.023Z,100708.78
2018-11-02T04:18:03.452Z,100709.34
2018-11-02T04:19:07.216Z,100704.98
2018-11-02T04:20:11.015Z,100713.46
2018-11-02T04:21:14.473Z,100714.83
2018-11-02T04:22:17.919Z,100714.83
2018-11-02T04:23:21.512Z,100723.07
2018-11-02T04:24:25.078Z,100723.39
2018-11-02T04:25:28.556Z,100717.33
2018-11-02T04:26:32.040Z,100728.31
2018-11-02T04:27:35.474Z,100725.57
2018-11-02T04:28:39.071Z,100732.44
2018-11-02T04:29:42.479Z,100735.75
2018-11-02T04:30:46.012Z,100739.06
2018-11-02T04:31:49.399Z,100744.23
2018-11-02T04:32:52.842Z,100756.34
2018-11-02T04:33:56.250Z,100756.91
2018-11-02T04:34:59.687Z,100759.41
2018-11-02T04:36:03.067Z,100756.41
2018-11-02T04:37:06.523Z,100761.91
2018-11-02T04:38:10.475Z,100763.56
2018-11-02T04:39:14.961Z,100766.88
2018-11-02T04:40:18.382Z,100768.25
2018-11-02T04:41:21.873Z,100777.61
2018-11-02T04:42:25.330Z,100779.55
2018-11-02T04:43:28.700Z,100788.34
2018-11-02T04:44:32.094Z,100782.61
2018-11-02T04:45:38.560Z,100785.91
2018-11-02T04:46:42.060Z,100791.97
2018-11-02T04:47:45.473Z,100795.28
2018-11-02T04:48:48.873Z,100797.77
2018-11-02T04:49:52.595Z,100801.33
2018-11-02T04:50:56.084Z,100798.34
2018-11-02T04:51:59.465Z,100806.83
2018-11-02T04:53:03.704Z,100798.59
2018-11-02T04:54:07.136Z,100810.95
2018-11-02T04:55:10.753Z,100810.70
2018-11-02T04:56:14.178Z,100814.25
2018-11-02T04:57:17.594Z,100819.74
2018-11-02T04:58:21.184Z,100819.18
2018-11-02T04:59:24.595Z,100824.67
2018-11-02T05:00:27.986Z,100821.11
2018-11-02T05:01:31.496Z,100824.67
2018-11-02T05:02:34.916Z,100819.74
2018-11-02T05:03:38.348Z,100828.79
2018-11-02T05:04:41.806Z,100834.03
2018-11-02T05:05:45.236Z,100834.03
2018-11-02T05:06:48.660Z,100832.66
2018-11-02T05:07:52.130Z,100832.66
2018-11-02T05:08:55.535Z,100835.16
2018-11-02T05:09:59.016Z,100839.28
2018-11-02T05:11:02.482Z,100842.02
2018-11-02T05:12:06.586Z,100845.33
2018-11-02T05:13:09.969Z,100841.77
2018-11-02T05:14:13.362Z,100845.64
2018-11-02T05:15:16.820Z,100847.02
2018-11-02T05:16:20.271Z,100847.02
2018-11-02T05:17:23.712Z,100851.45
2018-11-02T05:18:27.147Z,100854.75
2018-11-02T05:19:30.676Z,100853.38
2018-11-02T05:20:34.084Z,100854.20
2018-11-02T05:21:37.535Z,100858.62
2018-11-02T05:22:40.978Z,100866.30
2018-11-02T05:23:44.356Z,100860.00
2018-11-02T05:24:47.919Z,100867.67
2018-11-02T05:25:51.384Z,100869.36
2018-11-02T05:26:54.805Z,100870.73
2018-11-02T05:27:58.308Z,100871.55
2018-11-02T05:29:01.729Z,100874.28
2018-11-02T05:30:06.011Z,100878.97
2018-11-02T05:31:09.461Z,100877.03
2018-11-02T05:32:12.931Z,100877.59
2018-11-02T05:33:16.325Z,100883.09
2018-11-02T05:34:19.719Z,100880.34
2018-11-02T05:35:23.304Z,100886.36
2018-11-02T05:36:26.747Z,100885.55
2018-11-02T05:37:30.232Z,100884.70
2018-11-02T05:38:33.668Z,100884.70
2018-11-02T05:39:37.283Z,100890.20
2018-11-02T05:40:40.762Z,100886.89
2018-11-02T05:41:44.257Z,100886.89
2018-11-02T05:42:47.921Z,100891.02
2018-11-02T05:43:51.447Z,100894.57
2018-11-02T05:44:54.860Z,100895.13
2018-11-02T05:45:58.315Z,100897.87
2018-11-02T05:47:01.795Z,100898.19
2018-11-02T05:48:05.608Z,100910.55
2018-11-02T05:49:09.112Z,100908.33
2018-11-02T05:50:12.514Z,100910.82
2018-11-02T05:51:15.959Z,100916.31
2018-11-02T05:52:19.354Z,100919.38
2018-11-02T05:53:22.771Z,100920.74
2018-11-02T05:54:26.221Z,100925.67
2018-11-02T05:55:29.571Z,100929.23
2018-11-02T05:56:33.004Z,100927.36
2018-11-02T05:57:36.432Z,100936.72
2018-11-02T05:58:39.826Z,100933.97
2018-11-02T05:59:43.217Z,100940.83
2018-11-02T06:00:46.662Z,100933.97
2018-11-02T06:01:50.026Z,100938.64
2018-11-02T06:02:53.421Z,100937.58
2018-11-02T06:03:56.833Z,100939.77
2018-11-02T06:05:00.249Z,100935.91
2018-11-02T06:06:03.717Z,100940.27
2018-11-02T06:07:07.272Z,100936.97
2018-11-02T06:08:10.721Z,100941.34
2018-11-02T06:09:14.261Z,100942.13
2018-11-02T06:10:17.771Z,100942.63
2018-11-02T06:11:21.178Z,100949.48
2018-11-02T06:12:24.752Z,100948.67
2018-11-02T06:13:28.172Z,100946.99
2018-11-02T06:14:31.660Z,100950.86
2018-11-02T06:15:36.182Z,100952.23
2018-11-02T06:16:40.474Z,100950.05
2018-11-02T06:17:43.946Z,100959.09
2018-11-02T06:18:47.364Z,100958.03
2018-11-02T06:19:50.852Z,100959.97
2018-11-02T06:20:55.907Z,100959.97
2018-11-02T06:21:59.460Z,100960.81
2018-11-02T06:23:03.040Z,100967.42
2018-11-02T06:24:07.201Z,100970.16
2018-11-02T06:25:10.734Z,100965.55
2018-11-02T06:26:14.151Z,100970.78
2018-11-02T06:27:17.775Z,100973.53
2018-11-02T06:28:21.384Z,100971.66
2018-11-02T06:29:24.811Z,100977.70
2018-11-02T06:30:28.212Z,100982.37
2018-11-02T06:31:31.744Z,100979.94
2018-11-02T06:32:35.208Z,100987.11
2018-11-02T06:33:38.644Z,100988.48
2018-11-02T06:34:42.166Z,100992.10
2018-11-02T06:35:45.588Z,100990.73
2018-11-02T06:36:49.165Z,100995.94
2018-11-02T06:37:52.593Z,100997.86
2018-11-02T06:38:56.167Z,101001.42
2018-11-02T06:39:59.553Z,101005.55
2018-11-02T06:41:03.251Z,101008.28
2018-11-02T06:42:06.824Z,101010.75
2018-11-02T06:43:10.776Z,101014.56
2018-11-02T06:44:14.200Z,101022.50
2018-11-02T06:45:17.736Z,101024.94
2018-11-02T06:46:21.499Z,101031.55
2018-11-02T06:47:24.907Z,101028.80
2018-11-02T06:48:28.512Z,101027.98
2018-11-02T06:49:32.020Z,101040.34
2018-11-02T06:50:35.450Z,101038.72
2018-11-02T06:51:38.945Z,101040.39
2018-11-02T06:52:42.389Z,101044.81
2018-11-02T06:53:45.824Z,101048.09
2018-11-02T06:54:49.264Z,101049.52
2018-11-02T06:55:52.716Z,101052.31
2018-11-02T06:56:56.131Z,101052.06
2018-11-02T06:57:59.556Z,101054.30
2018-11-02T06:59:03.096Z,101054.86
2018-11-02T07:00:09.780Z,101052.16
2018-11-02T07:01:13.098Z,101060.14
2018-11-02T07:02:16.879Z,101058.52
2018-11-02T07:03:20.262Z,101057.98
2018-11-02T07:04:23.671Z,101056.09
2018-11-02T07:05:27.087Z,101054.98
2018-11-02T07:06:30.522Z,101059.09
2018-11-02T07:07:34.252Z,101061.58
2018-11-02T07:08:37.562Z,101066.20
2018-11-02T07:09:40.930Z,101061.84
2018-11-02T07:10:44.343Z,101064.58
2018-11-02T07:11:47.808Z,101064.58
2018-11-02T07:12:51.231Z,101064.58
2018-11-02T07:13:54.630Z,101068.95
2018-11-02T07:14:58.082Z,101069.52
2018-11-02T07:16:01.651Z,101071.94
2018-11-02T07:17:05.622Z,101068.94
2018-11-02T07:18:09.043Z,101078.23
2018-11-02T07:19:12.483Z,101075.75
2018-11-02T07:20:15.932Z,101082.05
2018-11-02T07:21:19.418Z,101079.05
2018-11-02T07:22:22.848Z,101083.47
2018-11-02T07:23:26.241Z,101084.59
2018-11-02T07:24:29.758Z,101081.03
2018-11-02T07:25:33.166Z,101085.42
2018-11-02T07:26:36.701Z,101085.16
2018-11-02T07:27:40.156Z,101090.41
2018-11-02T07:28:43.612Z,101091.52
2018-11-02T07:29:47.025Z,101095.38
2018-11-02T07:30:50.503Z,101091.52
2018-11-02T07:31:53.936Z,101094.56
2018-11-02T07:32:57.372Z,101095.94
2018-11-02T07:34:00.779Z,101095.69
2018-11-02T07:35:04.215Z,101096.23
2018-11-02T07:36:07.647Z,101101.98
2018-11-02T07:37:11.026Z,101107.22
2018-11-02T07:38:14.595Z,101101.47
2018-11-02T07:39:18.040Z,101102.84
2018-11-02T07:40:21.795Z,101105.33
2018-11-02T07:41:25.188Z,101107.52
2018-11-02T07:42:28.627Z,101109.45
2018-11-02T07:43:32.128Z,101111.64
2018-11-02T07:44:35.515Z,101107.52
2018-11-02T07:45:38.906Z,101108.08
2018-11-02T07:46:42.374Z,101108.33
2018-11-02T07:47:45.826Z,101108.33
2018-11-02T07:48:49.239Z,101106.15
2018-11-02T07:49:52.842Z,101108.08
2018-11-02T07:50:56.700Z,101106.45
2018-11-02T07:52:00.297Z,101101.52
2018-11-02T07:53:03.798Z,101103.45
2018-11-02T07:54:07.218Z,101109.20
2018-11-02T07:55:12.694Z,101105.94
2018-11-02T07:56:16.099Z,101107.87
2018-11-02T07:57:19.473Z,101113.92
2018-11-02T07:58:22.915Z,101107.36
2018-11-02T07:59:26.425Z,101124.64
2018-11-02T08:00:29.918Z,101120.52
2018-11-02T08:01:33.340Z,101118.34
2018-11-02T08:02:36.787Z,101117.23
2018-11-02T08:03:40.251Z,101123.53
2018-11-02T08:04:43.832Z,101121.35
2018-11-02T08:05:47.279Z,101121.91
2018-11-02T08:06:50.672Z,101126.58
2018-11-02T08:07:54.276Z,101120.84
2018-11-02T08:08:57.692Z,101129.88
2018-11-02T08:10:01.141Z,101124.95
2018-11-02T08:11:04.811Z,101127.70
2018-11-02T08:12:08.236Z,101118.09
2018-11-02T08:13:11.658Z,101124.14
2018-11-02T08:14:15.093Z,101120.33
2018-11-02T08:15:18.505Z,101123.06
2018-11-02T08:16:22.067Z,101126.06
2018-11-02T08:17:25.545Z,101118.95
2018-11-02T08:18:28.934Z,101122.81
2018-11-02T08:19:32.595Z,101115.95
2018-11-02T08:20:36.001Z,101119.81
2018-11-02T08:21:39.537Z,101123.12
2018-11-02T08:22:43.505Z,101121.74
2018-11-02T08:23:46.965Z,101123.12
2018-11-02T08:24:50.408Z,101123.12
2018-11-02T08:25:53.900Z,101132.16
2018-11-02T08:26:57.401Z,101134.09
2018-11-02T08:28:00.868Z,101137.39
2018-11-02T08:29:05.853Z,101142.06
2018-11-02T08:30:10.572Z,101146.73
2018-11-02T08:31:14.422Z,101152.22
2018-11-02T08:32:18.260Z,101157.71
2018-11-02T08:33:22.095Z,101156.89
2018-11-02T08:34:25.497Z,101165.13
2018-11-02T08:35:29.125Z,101160.20
2018-11-02T08:36:32.590Z,101154.16
2018-11-02T08:37:35.993Z,101161.83
2018-11-02T08:38:40.199Z,101164.27
2018-11-02T08:39:45.054Z,101163.16
2018-11-02T08:40:48.625Z,101162.59
2018-11-02T08:41:52.106Z,101166.37
2018-11-02T08:42:55.555Z,101162.25
2018-11-02T08:43:59.152Z,101158.13
2018-11-02T08:45:02.635Z,101165.50
2018-11-02T08:46:06.982Z,101163.27
2018-11-02T08:47:10.461Z,101163.22
2018-11-02T08:48:14.225Z,101171.16
2018-11-02T08:49:17.670Z,101166.17
2018-11-02T08:50:21.075Z,101166.43
2018-11-02T08:51:24.482Z,101168.31
2018-11-02T08:52:27.997Z,101169.42
2018-11-02T08:53:31.362Z,101166.93
2018-11-02T08:54:34.884Z,101168.81
2018-11-02T08:55:38.252Z,101174.56
2018-11-02T08:56:41.641Z,101171.52
2018-11-02T08:57:45.211Z,101180.00
2018-11-02T08:58:48.790Z,101175.58
2018-11-02T08:59:52.123Z,101175.84
2018-11-02T09:00:55.512Z,101177.47
2018-11-02T09:01:59.258Z,101184.89
2018-11-02T09:03:02.672Z,101189.52
2018-11-02T09:04:06.182Z,101180.17
2018-11-02T09:05:09.872Z,101185.36
2018-11-02T09:06:13.161Z,101182.08
2018-11-02T09:07:16.616Z,101188.39
2018-11-02T09:08:20.075Z,101180.97
2018-11-02T09:09:23.459Z,101194.13
2018-11-02T09:10:26.888Z,101184.52
2018-11-02T09:11:30.322Z,101192.45
2018-11-02T09:12:33.770Z,101188.90
2018-11-02T09:13:37.262Z,101197.95
2018-11-02T09:14:40.660Z,101196.27
2018-11-02T09:15:44.067Z,101193.78
2018-11-02T09:16:47.524Z,101193.78
2018-11-02T09:17:50.886Z,101203.65
2018-11-02T09:18:54.419Z,101198.16
2018-11-02T09:19:57.826Z,101205.02
2018-11-02T09:21:01.225Z,101200.34
2018-11-02T09:22:05.100Z,101199.23
2018-11-02T09:23:08.505Z,101202.79
2018-11-02T09:24:12.092Z,101202.23
2018-11-02T09:25:15.529Z,101209.35
2018-11-02T09:26:18.980Z,101207.16
2018-11-02T09:27:22.506Z,101213.72
2018-11-02T09:28:26.038Z,101218.41
2018-11-02T09:29:29.549Z,101213.98
2018-11-02T09:30:33.038Z,101218.36
2018-11-02T09:31:36.480Z,101217.80
2018-11-02T09:32:39.995Z,101221.92
2018-11-02T09:33:43.910Z,101220.55
2018-11-02T09:34:47.393Z,101222.73
2018-11-02T09:35:50.854Z,101228.78
2018-11-02T09:36:54.410Z,101231.83
2018-11-02T09:37:57.974Z,101233.77
2018-11-02T09:39:01.515Z,101233.50
2018-11-02T09:40:06.636Z,101234.63
2018-11-02T09:41:10.008Z,101236.85
2018-11-02T09:42:13.445Z,101231.66
2018-11-02T09:43:16.880Z,101240.77
2018-11-02T09:44:20.320Z,101244.06
2018-11-02T09:45:23.783Z,101244.11
2018-11-02T09:46:27.356Z,101243.00
2018-11-02T09:47:30.792Z,101240.30
2018-11-02T09:48:34.228Z,101246.09
2018-11-02T09:49:37.781Z,101243.09
2018-11-02T09:50:41.499Z,101238.20
2018-11-02T09:51:45.079Z,101246.74
2018-11-02T09:52:48.421Z,101244.04
2018-11-02T09:53:51.840Z,101248.16
2018-11-02T09:54:55.637Z,101255.31
2018-11-02T09:55:59.088Z,101252.84
2018-11-02T09:57:02.504Z,101255.33
2018-11-02T09:58:06.084Z,101255.07
2018-11-02T09:59:09.549Z,101258.93
2018-11-02T10:00:14.036Z,101261.67
2018-11-02T10:01:17.491Z,101258.41
2018-11-02T10:02:20.914Z,101265.58
2018-11-02T10:03:24.365Z,101272.44
2018-11-02T10:04:27.746Z,101274.66
2018-11-02T10:05:31.200Z,101268.92
2018-11-02T10:06:34.708Z,101268.10
2018-11-02T10:07:39.183Z,101270.03
2018-11-02T10:08:42.690Z,101267.84
2018-11-02T10:09:46.120Z,101273.08
2018-11-02T10:10:49.555Z,101276.12
2018-11-02T10:11:53.135Z,101279.67
2018-11-02T10:12:56.549Z,101279.42
2018-11-02T10:13:59.985Z,101280.50
2018-11-02T10:15:03.517Z,101278.31
2018-11-02T10:16:07.549Z,101280.80
2018-11-02T10:17:11.034Z,101275.87
2018-11-02T10:18:14.460Z,101286.03
2018-11-02T10:19:17.934Z,101285.47
2018-11-02T10:20:21.387Z,101282.20
2018-11-02T10:21:24.885Z,101281.95
2018-11-02T10:22:28.316Z,101290.44
2018-11-02T10:23:31.738Z,101286.62
2018-11-02T10:24:35.124Z,101291.30
2018-11-02T10:25:38.524Z,101289.92
2018-11-02T10:26:42.012Z,101288.30
2018-11-02T10:27:45.540Z,101291.03
2018-11-02T10:28:49.024Z,101290.22
2018-11-02T10:29:52.972Z,101289.41
2018-11-02T10:30:56.470Z,101291.34
2018-11-02T10:31:59.941Z,101300.12
2018-11-02T10:33:03.541Z,101293.82
2018-11-02T10:34:07.017Z,101301.79
2018-11-02T10:35:10.488Z,101300.12
2018-11-02T10:36:13.919Z,101307.28
2018-11-02T10:37:17.334Z,101306.46
2018-11-02T10:38:20.946Z,101311.39
2018-11-02T10:39:24.398Z,101303.45
2018-11-02T10:40:27.866Z,101308.13
2018-11-02T10:41:35.802Z,101306.20
2018-11-02T10:42:40.132Z,101316.91
2018-11-02T10:43:43.658Z,101311.69
2018-11-02T10:44:47.230Z,101311.14
2018-11-02T10:45:55.960Z,101313.06
2018-11-02T10:46:59.602Z,101309.50
2018-11-02T10:48:04.588Z,101309.77
2018-11-02T10:49:08.328Z,101318.55
2018-11-02T10:50:11.784Z,101321.85
2018-11-02T10:51:15.309Z,101323.22
2018-11-02T10:52:18.664Z,101325.97
2018-11-02T10:53:22.113Z,101321.59
2018-11-02T10:54:25.553Z,101324.86
2018-11-02T10:55:29.185Z,101325.42
2018-11-02T10:56:32.680Z,101317.74
2018-11-02T10:57:36.080Z,101315.55
2018-11-02T10:58:39.511Z,101312.55
2018-11-02T10:59:42.986Z,101316.41
2018-11-02T11:00:51.868Z,101320.78
2018-11-02T11:02:00.705Z,101326.27
2018-11-02T11:03:04.355Z,101321.89
2018-11-02T11:04:08.076Z,101327.12
2018-11-02T11:05:11.502Z,101327.94
2018-11-02T11:06:14.933Z,101329.86
2018-11-02T11:07:18.338Z,101329.05
2018-11-02T11:08:21.788Z,101333.42
2018-11-02T11:09:25.197Z,101330.97
2018-11-02T11:10:28.640Z,101336.72
2018-11-02T11:11:32.172Z,101336.46
2018-11-02T11:12:35.744Z,101337.83
2018-11-02T11:13:39.468Z,101343.05
2018-11-02T11:14:42.741Z,101342.24
2018-11-02T11:15:46.282Z,101341.69
2018-11-02T11:16:49.741Z,101342.80
2018-11-02T11:17:53.208Z,101345.28
2018-11-02T11:18:56.648Z,101343.35
2018-11-02T11:20:00.151Z,101347.20
2018-11-02T11:21:03.891Z,101350.20
2018-11-02T11:22:07.647Z,101344.46
2018-11-02T11:23:11.241Z,101350.77
2018-11-02T11:24:14.673Z,101343.65
2018-11-02T11:25:18.195Z,101357.62
2018-11-02T11:26:21.687Z,101354.62
2018-11-02T11:27:25.239Z,101350.50
2018-11-02T11:28:28.696Z,101351.61
2018-11-02T11:29:32.350Z,101353.80
2018-11-02T11:30:35.708Z,101349.98
2018-11-02T11:31:39.216Z,101348.61
2018-11-02T11:32:42.666Z,101346.13
2018-11-02T11:33:46.272Z,101345.02
2018-11-02T11:34:50.083Z,101343.65
2018-11-02T11:35:53.640Z,101343.13
2018-11-02T11:36:57.182Z,101351.06
2018-11-02T11:38:00.729Z,101345.87
2018-11-02T11:39:06.741Z,101348.32
2018-11-02T11:40:12.689Z,101343.39
2018-11-02T11:41:16.305Z,101348.87
2018-11-02T11:42:19.733Z,101352.98
2018-11-02T11:43:23.264Z,101345.58
2018-11-02T11:44:26.710Z,101348.87
2018-11-02T11:45:30.207Z,101347.24
2018-11-02T11:46:33.646Z,101345.31
2018-11-02T11:47:37.289Z,101346.13
2018-11-02T11:48:40.720Z,101349.43
2018-11-02T11:49:44.174Z,101354.66
2018-11-02T11:50:47.890Z,101357.66
2018-11-02T11:51:51.498Z,101351.36
2018-11-02T11:52:55.391Z,101354.91
2018-11-02T11:53:58.914Z,101351.91
2018-11-02T11:55:02.389Z,101360.14
2018-11-02T11:56:07.107Z,101357.13
2018-11-02T11:57:10.533Z,101357.39
2018-11-02T11:58:13.996Z,101357.69
2018-11-02T11:59:17.740Z,101362.63
2018-11-02T12:00:22.471Z,101358.51
2018-11-02T12:01:26.121Z,101363.73
2018-11-02T12:02:29.599Z,101370.03
2018-11-02T12:03:33.027Z,101366.47
2018-11-02T12:04:36.908Z,101367.58
2018-11-02T12:05:40.314Z,101368.95